There is a communication problem. Go directly to the Meteoalarm site : www.meteoalarm.eu and check the Weather-warnings there .


Webcam  Webcam


Lyn radar more information blitzortung!


Regn radar more information rain snow radar



Lokal METAR Rapport

   
EHVK - Volkel Rnlafb, Netherlands
Afstand fra station: SV 18 km
Opdateret: 22-02-2024 02:25
Finregn, Overskyet  
Finregn, Overskyet  
   Vind: SV 6.2 m/s
Vind: SV 6.2 m/s
Temperatur: 10°C
Kuldeindeks: 7°C
Dugpunkt: 10°C
Luftfugtighed: 100%
Barometer: 998 hPa
Skyet: Overskyet
Sigtbarhed: 3 km
Sky detaljer: Delvis skyet 300 ft,
mest skyet 500 ft,
Overskyet 600 ft
EHVK 220125Z AUTO 22012KT 170V260 2600 R24R/P3000N DZ SCT003 BKN005 OVC006 10/10 Q0998 YLO
EDLV - Niederrhein, Germany
Afstand fra station: SØ 25 km
Opdateret: 22-02-2024 02:20
Overskyet  
Overskyet  
   Vind: SSV 6.7 m/s
Vind: SSV 6.7 m/s
Temperatur: 10°C
Kuldeindeks: 7°C
Dugpunkt: 9°C
Luftfugtighed: 94%
Barometer: 998 hPa
Skyet: Overskyet
Sigtbarhed: 3 km
Sky detaljer: Overskyet 400 ft
EDLV 220120Z AUTO 21013KT 3100 // OVC004/// 10/09 Q0998
EHDL - Deelen Rnlafb, Netherlands
Afstand fra station: N 35 km
Opdateret: 22-02-2024 02:25
Heavy Drizzle, Overskyet  
Heavy Drizzle, Overskyet  
   Vind: SV 6.2 m/s
Vind: SV 6.2 m/s
Temperatur: 10°C
Kuldeindeks: 7°C
Dugpunkt: 9°C
Luftfugtighed: 94%
Barometer: 997 hPa
Skyet: Overskyet
Sigtbarhed: 2 km
Sky detaljer: mest skyet 200 ft,
mest skyet 400 ft,
Overskyet 500 ft
EHDL 220125Z AUTO 22012KT 140V270 2400 +DZ BKN002 BKN004 OVC005 10/09 Q0997 AMB
EHEH - Eindhoven Rnlafb, Netherlands
Afstand fra station: SV 48 km
Opdateret: 22-02-2024 02:38
Let tåge, mest skyet  
Let tåge, mest skyet  
   Vind: SV 6.7 m/s
Vind: SV 6.7 m/s
Temperatur: 10°C
Kuldeindeks: 7°C
Dugpunkt: 10°C
Luftfugtighed: 100%
Barometer: 998 hPa
Skyet: mest skyet
Sigtbarhed: 6 km
Sky detaljer: Let Skyet 500 ft,
mest skyet 600 ft,
mest skyet 700 ft
EHEH 220138Z AUTO 22013KT 190V250 6000 BR FEW005 BKN006 BKN007 10/10 Q0998 YLO
EHGR - Gilze-Rijen Rnla, Netherlands
Afstand fra station: VSV 70 km
Opdateret: 22-02-2024 02:38
Heavy Drizzle, mest skyet  
Heavy Drizzle, mest skyet  
   Vind: SV 3.6 m/s
Vind: SV 3.6 m/s
Temperatur: 11°C
Dugpunkt: 10°C
Luftfugtighed: 94%
Barometer: 997 hPa
Skyet: mest skyet
Sigtbarhed: 3 km
Sky detaljer: Let Skyet 400 ft,
mest skyet 500 ft,
mest skyet 600 ft
EHGR 220138Z AUTO 22007KT 3300 +DZ FEW004 BKN005 BKN006 11/10 Q0997 YLO
EBBL - Kleine-Brogel(Ba, Belgium
Afstand fra station: SSV 71 km
Opdateret: 22-02-2024 02:33
Overskyet  
Overskyet  
   Vind: varierer Stille
Vind: varierer Stille
Temperatur: 10°C
Dugpunkt: 9°C
Luftfugtighed: 94%
Barometer: 999 hPa
Skyet: Overskyet
Sigtbarhed: mere end 10 km
Sky detaljer: Overskyet 600 ft
EBBL 220133Z AUTO //////KT 9999 OVC006/// 10/09 Q0999 YLO

Script udviklet af  Saratoga-weather.org Tilpasset til denne template af  Weerstation Leuven

Du finder også vores vejrinformationer på:

UK Metoffice

European Weather Network

WeatherCloud

Weather Underground

AWEKAS

Citizen Weather Observer Program (CWOP)

HAMweather, WeatherForYou, PWS Weather

Udstyr som vi anvender:

Vejrstation
Davis VP2

Vejrprogram
Meteobridge

Vejrserver
Meteobridge Pro

Davis VP2

Meteobridge

Meteobridge Pro